METAR Data
IDs: Format: Raw Decoded Include TAF

Data at: 2342 UTC 25 Oct 2021

PAOT 252253Z 20016KT 10SM OVC014 M02/M04 A2921 RMK AO2 SLP893 T10171039
PAOT 252153Z 21016KT 10SM BKN011 OVC015 M02/M04 A2922 RMK AO2 SLP894 T10221039
PAOT 252100Z 22016KT 10SM BKN015 BKN020 M02/M04 A2921 RMK AO2 T10171039
PAOT 252053Z 21014KT 10SM BKN014 BKN020 M02/M04 A2921 RMK AO2 SLP891 60000 T10171039 52011
PAOT 251953Z 21015KT 10SM OVC013 M02/M03 A2920 RMK AO2 SLP889 T10171033
PAOT 251853Z 21017KT 10SM OVC011 M02/M03 A2918 RMK AO2 SNB00E15 SLP882 P0000 T10171028
PAOT 251753Z COR 21013KT 10SM BKN012 OVC016 M01/M03 A2918 RMK AO2 SNE29 SLP880 P0001 60003 T10111028 11011 21039 58003 $
PAOT 251725Z 19010KT 3SM -SN BR FEW008 OVC012 M02/M03 A2918 RMK AO2 P0000 T10171028 $
PAOT 251714Z 18011KT 3SM R09/6000VP6000FT -SN BR OVC012 M02/M03 A2918 RMK AO2 P0000 T10221028 $
PAOT 251653Z 18012KT 6SM -SN BR OVC016 M02/M03 A2919 RMK AO2 SNB40 SLP883 P0000 T10171033 $
PAOT 251631Z 18013KT 10SM OVC015 M02/M04 A2918 RMK AO2 T10171039 $
PAOT 251613Z 19012KT 10SM OVC014 M02/M04 A2918 RMK AO2 T10171039 $
PAOT 251553Z 19011KT 10SM OVC015 M02/M03 A2918 RMK AO2 SNB24E33 SLP883 P0000 T10171033 $
PAOT 251531Z 19013KT 7SM -SN OVC015 M02/M03 A2919 RMK AO2 SNB24 P0000 T10171033 $
PAOT 251515Z 20012KT 8SM OVC014 M02/M03 A2919 RMK AO2 T10171028 $
PAOT 251500Z 20011KT 10SM OVC016 M02/M03 A2919 RMK AO2 T10171028 $
PAOT 251453Z 20014KT 10SM OVC014 M02/M03 A2919 RMK AO2 SNE43 SLP883 P0001 60002 T10171033 56005 $
PAOT 251442Z AUTO 19013G18KT 5SM -SN BR BKN014 OVC024 M02/M03 A2919 RMK AO2 P0001 T10171028 TSNO $
PAOT 251353Z AUTO 19009KT 4SM -SN BR FEW013 BKN019 OVC026 M02/M03 A2919 RMK AO2 SNE00B12 SLP885 P0000 T10171028 TSNO $
PAOT 251329Z AUTO 18009KT 9SM FEW010 BKN020 OVC026 M02/M02 A2919 RMK AO2 SNE00B12E27 P0000 T10171022 TSNO $
PAOT 251321Z AUTO 17010KT 2SM R09/6000VP6000FT -SN BR SCT010 BKN018 OVC035 M02/M02 A2919 RMK AO2 SNE00B12 P0000 T10221022 TSNO $
PAOT 251315Z AUTO 15008KT 1 3/4SM R09/6000VP6000FT -SN BR BKN013 BKN035 M02/M03 A2919 RMK AO2 SNE00B12 P0000 T10221028 TSNO $
PAOT 251311Z AUTO 16008KT 4SM BR BKN015 BKN035 M02/M03 A2919 RMK AO2 SNE00 P0000 T10221028 TSNO $
PAOT 251257Z AUTO 15007KT 3SM R09/5000VP6000FT -SN BR SCT010 SCT018 BKN034 M04/M04 A2919 RMK AO2 P0000 T10391044 TSNO $
PAOT 251253Z AUTO 13006KT 1 3/4SM R09/5000VP6000FT -SN BR SCT010 BKN018 BKN034 M04/M04 A2919 RMK AO2 SNE1159B02E17B39 SLP885 P0001 T10391044 TSNO $
PAOT 251250Z AUTO 13006KT 1 3/4SM R09/5000VP6000FT -SN BR FEW006 SCT010 BKN018 M04/M04 A2919 RMK AO2 SNE1159B02E17B39 P0001 TSNO $
PAOT 251214Z AUTO 14010KT 3SM -SN BR BKN015 OVC023 M03/M04 A2920 RMK AO2 SNE1159B02 P0001 T10331039 TSNO $
PAOT 251206Z AUTO 13011KT 1 3/4SM -SN BR SCT012 BKN016 OVC023 M04/M04 A2920 RMK AO2 VIS 1V5 SNE1159B02 P0000 T10391044 TSNO $
PAOT 251201Z AUTO 13010KT 4SM BR BKN016 OVC023 M04/M04 A2920 RMK AO2 SNE1159 P0000 T10391044 TSNO $
PAOT 251153Z AUTO 13012KT 2 1/2SM -SN BR BKN016 BKN024 M04/M04 A2920 RMK AO2 SNB42 SLP888 P0000 60000 70003 T10391044 11017 21044 58008 TSNO $
PAOT 251147Z AUTO 13012KT 2 1/2SM -SN BR BKN016 M04/M05 A2920 RMK AO2 SNB42 P0000 TSNO $
PAOT 251131Z AUTO 13011KT 10SM SCT014 BKN065 M04/M05 A2920 RMK AO2 T10441050 TSNO $
PAOT 251053Z AUTO 13011KT 10SM BKN015 BKN065 M04/M04 A2921 RMK AO2 SLP893 T10391044 TSNO $
PAOT 251041Z AUTO 12012KT 10SM SCT011 BKN065 M04/M04 A2921 RMK AO2 T10391044 TSNO $
PAOT 251013Z AUTO 13009KT 10SM BKN012 BKN035 M03/M03 A2922 RMK AO2 T10281033 TSNO $
PAOT 250953Z AUTO 13011KT 10SM FEW009 BKN036 M03/M03 A2922 RMK AO2 SLP896 T10281033 TSNO $
PAOT 250939Z AUTO 13011KT 10SM FEW008 OVC036 M02/M03 A2923 RMK AO2 T10221033 TSNO $
PAOT 250853Z AUTO 14014KT 10SM OVC034 M03/M03 A2923 RMK AO2 SLP899 T10281033 410061028 56006 TSNO $
PAOT 250753Z 14012KT 10SM SCT037 M03/M03 A2923 RMK AO2 SLP900 T10281033 $
PAOT 250653Z 13012KT 10SM OVC046 M02/M02 A2924 RMK AO2 SLP902 T10171022 $
PAOT 250553Z 12012KT 10SM OVC049 M02/M02 A2925 RMK AO2 SLP905 60000 T10171022 11006 21017 56011 $
PAOT 250453Z 13014KT 10SM OVC050 M02/M02 A2926 RMK AO2 SLP908 T10171022 $
PAOT 250353Z 12013KT 10SM SCT043 OVC050 M02/M02 A2927 RMK AO2 SLP911 T10171022 $
PAOT 250300Z 13014KT 10SM FEW007 SCT019 OVC036 M01/M02 A2928 RMK AO2 T10111017 $
PAOT 250253Z 13013KT 9SM SCT007 BKN019 OVC034 M01/M02 A2928 RMK AO2 SNB01E53 SLP916 SHSN S-W VIS LWR S-W P0000 60000 T10111017 56007 $
PAOT 250249Z 13011KT 9SM -SN SCT007 BKN019 OVC042 M01/M02 A2928 RMK AO2 SNB01 SHSN S-W VIS LWR S-W P0000 $
PAOT 250240Z 17006KT 9SM -SN SCT007 BKN011 OVC028 M01/M02 A2928 RMK AO2 SNB01 SHSN S-W VIS LWR S-W P0000 T10111017 $
PAOT 250225Z 15011KT 4SM -SN BR FEW010 BKN026 OVC031 M01/M02 A2928 RMK AO2 SNB01 SHSN S-W VIS LWR S-W P0000 T10111017 $
PAOT 250211Z 13012KT 2SM -SN BR FEW008 BKN027 OVC036 M01/M02 A2929 RMK AO2 SNB01 VIS 1 V 3 P0000 T10111017 $
PAOT 250202Z 12012KT 1 1/2SM R09/5500VP6000FT -SN BR FEW008 BKN022 OVC036 M01/M02 A2929 RMK AO2 VIS 1/2V5 SNB01 P0000 T10061017 $
PAOT 250200Z 12013KT 3SM R09/5500VP6000FT BR FEW013 BKN026 OVC036 M01/M02 A2929 RMK AO2 T10061017 $
PAOT 250153Z 13012KT 10SM SCT008 BKN012 OVC034 M01/M02 A2929 RMK AO2 SLP919 T10061017 $
PAOT 250053Z 13014KT 10SM SCT008 BKN012 OVC034 M01/M02 A2930 RMK AO2 SLP923 T10061017 $
PAOT 242353Z 13014KT 10SM SCT008 BKN012 OVC032 M01/M02 A2932 RMK AO2 SLP928 60001 T10111017 11011 21028 58010 $
PAOT 242322Z 12012KT 10SM SCT006 BKN015 OVC029 M01/M02 A2933 RMK AO2 T10111022 $
PAOT 242315Z 12013KT 10SM BKN007 BKN015 OVC029 M02/M02 A2933 RMK AO2 T10171022 $
PAOT 242255Z 12012KT 10SM SCT008 BKN015 OVC031 M02/M02 A2933 RMK AO2 T10171022 $
PAOT 242253Z 12013KT 10SM SCT008 BKN012 OVC031 M02/M02 A2933 RMK AO2 SLP931 T10171022 $
PAOT 242204Z 11010KT 10SM SCT006 OVC012 M02/M02 A2933 RMK AO2 T10171022 $
PAOT 242153Z 12012KT 10SM BKN006 OVC011 M02/M02 A2934 RMK AO2 SLP936 T10171022 $
PAOT 242053Z 13010KT 10SM OVC006 M02/M03 A2935 RMK AO2 SLP938 60001 T10221028 56002 $
PAOT 242025Z 13014KT 9SM SCT006 OVC010 M02/M03 A2935 RMK AO2 T10221028 $
PAOT 241955Z 12011KT 3SM BR OVC010 M03/M03 A2935 RMK AO2 T10281028 $
PAOT 241953Z 11010KT 3SM BR OVC009 M03/M03 A2935 RMK AO2 SNE18B24E48 SLP938 P0001 T10281028 $
PAOT 241923Z 11010KT 8SM BKN009 OVC060 M03/M03 A2935 RMK AO2 SNE18 P0000 T10281033 $
PAOT 241853Z 10011KT 3SM -SN BR SCT025 OVC060 M03/M03 A2935 RMK AO2 SLP939 P0000 T10281033 $
PAOT 241849Z 11011KT 3SM -SN BR SCT025 BKN034 OVC060 M03/M03 A2935 RMK AO2 P0000 $
PAOT 241809Z 11011KT 3SM -SN BR BKN023 OVC032 M03/M03 A2936 RMK AO2 P0000 T10281033 $
PAOT 241753Z 10010KT 3SM -SN BR OVC032 M03/M03 A2936 RMK AO2 SLP942 P0001 60002 T10281033 11022 21028 58005 $
PAOT 241653Z 10009KT 3SM -SN BR OVC036 M03/M03 A2937 RMK AO2 SLP944 P0001 T10281033 $
PAOT 241553Z 09006KT 3SM -SN BR OVC050 M02/M03 A2937 RMK AO2 SLP946 P0000 T10221033 $
PAOT 241512Z 10006KT 3SM -SN BR BKN030 OVC050 M02/M03 A2938 RMK AO2 P0000 T10221033 $
PAOT 241502Z 10007KT 4SM -SN BR BKN029 OVC055 M02/M03 A2938 RMK AO2 P0000 T10221033 $
PAOT 241453Z 11007KT 6SM -SN BR SCT029 BKN046 OVC055 M02/M03 A2938 RMK AO2 SNB02 SLP949 P0000 60000 T10221033 53003 $
PAOT 241353Z AUTO 11008KT 10SM FEW032 BKN050 OVC065 M02/M04 A2937 RMK AO2 SNB21E35 SLP947 P0000 T10221039 TSNO $
PAOT 241253Z AUTO 09006KT 10SM BKN055 OVC070 M03/M04 A2938 RMK AO2 SLP948 T10281044 TSNO $
PAOT 241153Z AUTO 11006KT 10SM OVC070 M03/M05 A2937 RMK AO2 SLP946 T10281050 11017 21033 53009 TSNO $